createdAt,value
2022-10-23T00:02:16.661Z,100391.66
2022-10-23T00:04:53.865Z,100387.41
2022-10-23T00:07:47.382Z,100382.09
2022-10-23T00:10:37.017Z,100389.94
2022-10-23T00:13:18.208Z,100390.91
2022-10-23T00:15:57.013Z,100384.00
2022-10-23T00:21:22.059Z,100382.53
2022-10-23T00:24:00.535Z,100382.53
2022-10-23T00:26:40.339Z,100378.34
2022-10-23T00:29:38.983Z,100377.66
2022-10-23T00:32:18.912Z,100380.28
2022-10-23T00:35:08.907Z,100367.47
2022-10-23T00:37:51.479Z,100369.38
2022-10-23T00:40:38.727Z,100367.84
2022-10-23T00:43:26.578Z,100372.19
2022-10-23T00:46:20.744Z,100369.63
2022-10-23T00:49:06.047Z,100366.28
2022-10-23T00:52:06.803Z,100365.44
2022-10-23T00:55:05.732Z,100343.69
2022-10-23T00:58:00.700Z,100360.06
2022-10-23T01:01:01.301Z,100367.97
2022-10-23T01:03:48.837Z,100369.78
2022-10-23T01:06:41.183Z,100368.94
2022-10-23T01:09:47.707Z,100359.63
2022-10-23T01:12:42.355Z,100361.59
2022-10-23T01:15:50.587Z,100356.44
2022-10-23T01:18:32.614Z,100361.53
2022-10-23T01:21:50.273Z,100361.34
2022-10-23T01:24:45.219Z,100338.69
2022-10-23T01:27:34.997Z,100353.97
2022-10-23T01:30:33.707Z,100348.75
2022-10-23T01:33:20.065Z,100349.56
2022-10-23T01:36:09.232Z,100324.38
2022-10-23T01:38:55.714Z,100357.34
2022-10-23T01:41:56.052Z,100346.97
2022-10-23T01:44:56.272Z,100268.78
2022-10-23T01:47:45.170Z,100357.41
2022-10-23T01:50:36.150Z,100345.56
2022-10-23T01:56:23.466Z,100341.06
2022-10-23T01:59:02.059Z,100349.78
2022-10-23T02:02:08.623Z,100356.50
2022-10-23T02:04:58.564Z,100353.97
2022-10-23T02:07:45.821Z,100346.44
2022-10-23T02:10:33.158Z,100343.81
2022-10-23T02:13:37.488Z,100353.19
2022-10-23T02:16:36.271Z,100337.53
2022-10-23T02:19:31.644Z,100349.50
2022-10-23T02:22:33.138Z,100349.41
2022-10-23T02:25:44.879Z,100344.22
2022-10-23T02:32:32.409Z,100342.91
2022-10-23T02:35:43.218Z,100351.56
2022-10-23T02:39:05.283Z,100349.69
2022-10-23T02:41:51.088Z,100347.75
2022-10-23T02:44:51.629Z,100352.81
2022-10-23T02:50:50.453Z,100324.91
2022-10-23T02:53:47.280Z,100339.16
2022-10-23T02:56:30.290Z,100334.19
2022-10-23T02:59:23.179Z,100336.03
2022-10-23T03:02:07.138Z,100334.94
2022-10-23T03:04:59.763Z,100337.34
2022-10-23T03:07:51.743Z,100341.56
2022-10-23T03:10:36.593Z,100346.69
2022-10-23T03:13:18.662Z,100347.50
2022-10-23T03:16:08.813Z,100338.84
2022-10-23T03:18:47.668Z,100342.28
2022-10-23T03:21:31.260Z,100332.84
2022-10-23T03:24:18.435Z,100340.59
2022-10-23T03:26:55.271Z,100335.50
2022-10-23T03:29:49.727Z,100336.38
2022-10-23T03:32:37.070Z,100326.91
2022-10-23T03:35:14.924Z,100325.38
2022-10-23T03:37:58.757Z,100334.06
2022-10-23T03:40:39.391Z,100334.13
2022-10-23T03:43:16.491Z,100328.06
2022-10-23T03:46:02.405Z,100330.72
2022-10-23T03:48:42.019Z,100324.63
2022-10-23T03:54:45.181Z,100327.91
2022-10-23T03:57:42.270Z,100333.94
2022-10-23T04:00:31.350Z,100326.91
2022-10-23T04:03:11.628Z,100318.09
2022-10-23T04:05:52.353Z,100328.47
2022-10-23T04:08:32.296Z,100337.13
2022-10-23T04:11:16.161Z,100328.47
2022-10-23T04:13:54.378Z,100314.72
2022-10-23T04:16:35.576Z,100327.63
2022-10-23T04:19:28.190Z,100325.00
2022-10-23T04:22:24.747Z,100323.31
2022-10-23T04:25:20.296Z,100319.16
2022-10-23T04:28:21.831Z,100321.06
2022-10-23T04:31:03.982Z,100320.16
2022-10-23T04:33:44.991Z,100323.44
2022-10-23T04:39:44.094Z,100293.78
2022-10-23T04:45:30.382Z,100322.41
2022-10-23T04:48:13.665Z,100309.25
2022-10-23T04:50:50.643Z,100240.84
2022-10-23T04:53:41.938Z,100325.13
2022-10-23T04:56:33.383Z,100327.75
2022-10-23T05:02:10.312Z,100327.81
2022-10-23T05:05:03.800Z,100333.78
2022-10-23T05:07:54.794Z,100331.25
2022-10-23T05:10:31.596Z,100334.63
2022-10-23T05:13:34.297Z,100337.16
2022-10-23T05:16:53.628Z,100333.75
2022-10-23T05:19:56.864Z,100344.94
2022-10-23T05:22:57.411Z,100292.00
2022-10-23T05:25:43.872Z,100350.13
2022-10-23T05:28:31.647Z,100347.50
2022-10-23T05:31:31.943Z,100350.97
2022-10-23T05:34:20.348Z,100347.28
2022-10-23T05:37:08.783Z,100364.50
2022-10-23T05:39:46.435Z,100362.78
2022-10-23T05:42:31.877Z,100368.84
2022-10-23T05:48:22.735Z,100380.78
2022-10-23T05:51:14.870Z,100374.59
2022-10-23T05:53:53.263Z,100329.53
2022-10-23T05:56:41.645Z,100362.63
2022-10-23T05:59:29.192Z,100378.16
2022-10-23T06:02:45.831Z,100373.00
2022-10-23T06:08:28.137Z,100375.53
2022-10-23T06:11:06.000Z,100377.19
2022-10-23T06:16:48.367Z,100386.81
2022-10-23T06:19:45.970Z,100386.78
2022-10-23T06:22:27.256Z,100374.63
2022-10-23T06:25:06.473Z,100376.31
2022-10-23T06:27:43.552Z,100388.44
2022-10-23T06:30:55.963Z,100390.94
2022-10-23T06:33:35.905Z,100397.03
2022-10-23T06:36:57.943Z,100391.81
2022-10-23T06:39:53.916Z,100403.78
2022-10-23T06:42:36.152Z,100401.97
2022-10-23T06:45:26.490Z,100405.34
2022-10-23T06:48:07.699Z,100398.31
2022-10-23T06:50:47.597Z,100387.66
2022-10-23T06:53:28.737Z,100404.84
2022-10-23T06:56:23.329Z,100408.16
2022-10-23T06:59:04.633Z,100416.66
2022-10-23T07:01:43.084Z,100412.31
2022-10-23T07:04:19.705Z,100426.06
2022-10-23T07:06:59.717Z,100426.94
2022-10-23T07:09:46.112Z,100429.50
2022-10-23T07:12:23.662Z,100430.28
2022-10-23T07:15:01.850Z,100435.41
2022-10-23T07:17:41.076Z,100431.91
2022-10-23T07:20:34.121Z,100394.34
2022-10-23T07:23:11.177Z,100434.34
2022-10-23T07:26:12.598Z,100434.22
2022-10-23T07:29:01.618Z,100445.28
2022-10-23T07:32:13.366Z,100443.38
2022-10-23T07:35:29.066Z,100444.03
2022-10-23T07:38:40.297Z,100441.13
2022-10-23T07:42:00.004Z,100442.16
2022-10-23T07:45:15.107Z,100443.31
2022-10-23T07:48:27.373Z,100442.09
2022-10-23T07:51:56.775Z,100445.13
2022-10-23T07:55:43.735Z,100464.53
2022-10-23T07:58:59.227Z,100461.47
2022-10-23T08:02:15.876Z,100465.44
2022-10-23T08:05:39.902Z,100470.44
2022-10-23T08:12:23.909Z,100478.75
2022-10-23T08:15:37.427Z,100487.38
2022-10-23T08:19:06.237Z,100487.38
2022-10-23T08:22:19.962Z,100488.97
2022-10-23T08:29:06.988Z,100481.97
2022-10-23T08:32:16.061Z,100493.94
2022-10-23T08:35:33.377Z,100488.63
2022-10-23T08:38:47.119Z,100497.88
2022-10-23T08:41:58.483Z,100500.16
2022-10-23T08:45:18.883Z,100507.63
2022-10-23T08:48:45.822Z,100503.13
2022-10-23T08:52:08.076Z,100506.47
2022-10-23T08:59:13.534Z,100516.13
2022-10-23T09:02:37.224Z,100525.47
2022-10-23T09:09:33.355Z,100526.94
2022-10-23T09:12:56.116Z,100519.97
2022-10-23T09:16:14.048Z,100523.53
2022-10-23T09:19:34.219Z,100519.69
2022-10-23T09:22:44.531Z,100494.94
2022-10-23T09:26:07.358Z,100533.03
2022-10-23T09:29:26.184Z,100543.09
2022-10-23T09:32:37.068Z,100536.22
2022-10-23T09:35:56.765Z,100534.75
2022-10-23T09:39:22.957Z,100512.00
2022-10-23T09:42:08.656Z,100552.38
2022-10-23T09:45:12.108Z,100546.25
2022-10-23T09:47:58.774Z,100546.41
2022-10-23T09:50:53.781Z,100550.72
2022-10-23T09:53:50.830Z,100557.81
2022-10-23T09:57:19.178Z,100558.31
2022-10-23T10:00:24.487Z,100565.59
2022-10-23T10:03:12.141Z,100558.75
2022-10-23T10:06:32.230Z,100570.09
2022-10-23T10:09:37.269Z,100561.25
2022-10-23T10:12:59.158Z,100564.53
2022-10-23T10:15:42.839Z,100572.78
2022-10-23T10:18:36.559Z,100552.53
2022-10-23T10:21:32.306Z,100555.88
2022-10-23T10:24:30.252Z,100567.81
2022-10-23T10:27:31.081Z,100565.03
2022-10-23T10:30:17.478Z,100560.44
2022-10-23T10:33:26.366Z,100564.63
2022-10-23T10:36:14.993Z,100509.69
2022-10-23T10:39:00.376Z,100553.81
2022-10-23T10:41:55.107Z,100568.53
2022-10-23T10:44:46.984Z,100568.31
2022-10-23T10:47:52.222Z,100526.44
2022-10-23T10:50:38.757Z,100530.56
2022-10-23T10:53:27.244Z,100477.75
2022-10-23T10:56:19.370Z,100560.47
2022-10-23T10:59:11.214Z,100527.00
2022-10-23T11:01:53.540Z,100568.66
2022-10-23T11:07:52.710Z,100568.47
2022-10-23T11:13:34.602Z,100522.41
2022-10-23T11:16:21.791Z,100554.41
2022-10-23T11:19:14.165Z,100575.94
2022-10-23T11:22:07.744Z,100575.78
2022-10-23T11:29:14.049Z,100579.44
2022-10-23T11:32:14.599Z,100574.13
2022-10-23T11:43:04.735Z,100578.69
2022-10-23T11:46:00.043Z,100580.44
2022-10-23T11:49:32.707Z,100590.59
2022-10-23T11:52:30.251Z,100586.88
2022-10-23T11:55:26.230Z,100583.06
2022-10-23T11:58:45.225Z,100577.94
2022-10-23T12:02:05.194Z,100590.03
2022-10-23T12:04:55.116Z,100590.78
2022-10-23T12:07:46.323Z,100584.69
2022-10-23T12:14:09.024Z,100606.50
2022-10-23T12:17:04.166Z,100600.84
2022-10-23T12:23:35.782Z,100597.88
2022-10-23T12:26:38.769Z,100593.91
2022-10-23T12:29:30.509Z,100588.44
2022-10-23T12:32:26.967Z,100605.69
2022-10-23T12:38:41.375Z,100610.13
2022-10-23T12:41:43.870Z,100511.34
2022-10-23T12:44:23.531Z,100606.34
2022-10-23T12:47:07.409Z,100603.69
2022-10-23T12:49:56.527Z,100606.94
2022-10-23T12:52:41.922Z,100555.19
2022-10-23T12:55:53.625Z,100601.31
2022-10-23T12:58:37.345Z,100610.75
2022-10-23T13:04:25.520Z,100602.53
2022-10-23T13:07:21.590Z,100604.38
2022-10-23T13:10:17.832Z,100615.66
2022-10-23T13:13:04.757Z,100572.16
2022-10-23T13:16:04.681Z,100623.50
2022-10-23T13:18:48.245Z,100615.84
2022-10-23T13:21:33.019Z,100606.34
2022-10-23T13:24:28.862Z,100608.34
2022-10-23T13:27:05.090Z,100562.56
2022-10-23T13:29:49.641Z,100613.28
2022-10-23T13:32:37.184Z,100620.97
2022-10-23T13:35:40.886Z,100616.59
2022-10-23T13:38:19.029Z,100618.22
2022-10-23T13:41:10.271Z,100621.72
2022-10-23T13:44:02.497Z,100620.00
2022-10-23T13:49:24.568Z,100608.13
2022-10-23T13:52:27.642Z,100603.50
2022-10-23T13:55:15.119Z,100616.81
2022-10-23T13:57:54.494Z,100619.13
2022-10-23T14:00:29.892Z,100608.66
2022-10-23T14:03:17.915Z,100616.06
2022-10-23T14:06:12.624Z,100615.38
2022-10-23T14:08:47.348Z,100610.28
2022-10-23T14:11:27.479Z,100612.63
2022-10-23T14:14:05.566Z,100614.72
2022-10-23T14:16:46.773Z,100568.19
2022-10-23T14:22:41.127Z,100613.38
2022-10-23T14:25:36.668Z,100608.03
2022-10-23T14:28:30.913Z,100595.09
2022-10-23T14:37:23.355Z,100606.88
2022-10-23T14:40:13.703Z,100614.25
2022-10-23T14:42:55.677Z,100604.41
2022-10-23T14:45:35.880Z,100610.13
2022-10-23T14:48:12.550Z,100562.19
2022-10-23T14:51:13.697Z,100608.50
2022-10-23T14:54:16.198Z,100610.00
2022-10-23T14:59:46.549Z,100613.09
2022-10-23T15:02:27.234Z,100610.53
2022-10-23T15:05:18.520Z,100605.34
2022-10-23T15:08:10.415Z,100602.00
2022-10-23T15:10:55.851Z,100611.22
2022-10-23T15:13:39.558Z,100611.34
2022-10-23T15:16:35.560Z,100609.72
2022-10-23T15:19:18.730Z,100613.47
2022-10-23T15:22:17.199Z,100620.59
2022-10-23T15:24:59.904Z,100620.47
2022-10-23T15:27:43.167Z,100618.59
2022-10-23T15:30:36.911Z,100621.28
2022-10-23T15:33:19.166Z,100622.25
2022-10-23T15:36:09.549Z,100623.69
2022-10-23T15:39:00.797Z,100627.56
2022-10-23T15:41:53.440Z,100607.47
2022-10-23T15:44:36.560Z,100583.59
2022-10-23T15:47:15.336Z,100629.00
2022-10-23T15:50:01.726Z,100624.41
2022-10-23T15:52:59.587Z,100622.81
2022-10-23T15:55:44.168Z,100622.94
2022-10-23T16:14:10.282Z,100638.16
2022-10-23T16:16:47.343Z,100638.28
2022-10-23T16:22:41.289Z,100647.66
2022-10-23T16:25:36.114Z,100658.63
2022-10-23T16:28:18.520Z,100638.34
2022-10-23T16:31:09.174Z,100653.47
2022-10-23T16:36:47.042Z,100652.84
2022-10-23T16:39:27.660Z,100643.34
2022-10-23T16:45:03.056Z,100651.34
2022-10-23T16:50:53.785Z,100646.94
2022-10-23T16:53:36.472Z,100633.00
2022-10-23T16:56:20.157Z,100588.41
2022-10-23T16:59:05.955Z,100632.50
2022-10-23T17:01:50.948Z,100632.75
2022-10-23T17:04:40.004Z,100629.38
2022-10-23T17:07:51.916Z,100629.25
2022-10-23T17:10:36.260Z,100632.50
2022-10-23T17:13:22.931Z,100636.75
2022-10-23T17:19:08.372Z,100636.09
2022-10-23T17:21:50.454Z,100624.00
2022-10-23T17:24:37.068Z,100643.41
2022-10-23T17:27:31.315Z,100638.50
2022-10-23T17:30:42.535Z,100648.97
2022-10-23T17:33:22.085Z,100648.84
2022-10-23T17:36:01.949Z,100644.28
2022-10-23T18:26:57.726Z,100665.56
2022-10-23T18:29:47.197Z,100672.03
2022-10-23T18:33:14.186Z,100660.78
2022-10-23T18:35:57.715Z,100662.69
2022-10-23T18:38:46.335Z,100665.16
2022-10-23T18:41:34.064Z,100670.28
2022-10-23T18:44:34.377Z,100671.19
2022-10-23T18:47:24.670Z,100658.31
2022-10-23T18:50:11.637Z,100670.28
2022-10-23T18:53:08.696Z,100670.16
2022-10-23T18:55:51.973Z,100665.16
2022-10-23T18:58:40.779Z,100664.50
2022-10-23T19:01:32.665Z,100667.44
2022-10-23T19:04:17.999Z,100643.19
2022-10-23T19:07:02.475Z,100618.59
2022-10-23T19:09:56.696Z,100669.19
2022-10-23T19:12:45.173Z,100665.47
2022-10-23T19:15:35.310Z,100670.44
2022-10-23T19:18:38.231Z,100671.94
2022-10-23T19:21:22.129Z,100676.75
2022-10-23T19:24:05.076Z,100604.34
2022-10-23T19:26:55.093Z,100685.72
2022-10-23T19:29:34.266Z,100690.56
2022-10-23T19:32:18.040Z,100674.72
2022-10-23T19:35:03.942Z,100698.03
2022-10-23T19:37:47.496Z,100699.00
2022-10-23T19:40:39.577Z,100704.75
2022-10-23T19:43:50.915Z,100704.63
2022-10-23T19:46:43.458Z,100711.47
2022-10-23T19:49:44.836Z,100707.97
2022-10-23T19:52:50.779Z,100710.28
2022-10-23T19:55:41.062Z,100696.94
2022-10-23T19:58:29.502Z,100713.34
2022-10-23T20:01:35.005Z,100708.19
2022-10-23T20:04:52.357Z,100715.13
2022-10-23T20:07:35.731Z,100721.16
2022-10-23T20:10:27.894Z,100721.47
2022-10-23T20:13:22.829Z,100716.22
2022-10-23T20:16:07.996Z,100733.41
2022-10-23T20:19:04.102Z,100717.81
2022-10-23T20:21:51.161Z,100734.59
2022-10-23T20:24:45.165Z,100735.88
2022-10-23T20:27:21.378Z,100734.66
2022-10-23T20:30:06.576Z,100727.47
2022-10-23T20:32:48.295Z,100737.22
2022-10-23T20:35:25.766Z,100731.63
2022-10-23T20:38:06.712Z,100739.03
2022-10-23T20:40:58.567Z,100736.78
2022-10-23T20:43:42.411Z,100738.59
2022-10-23T20:49:39.849Z,100733.91
2022-10-23T20:52:21.553Z,100751.50
2022-10-23T20:55:15.634Z,100751.56
2022-10-23T20:58:01.003Z,100743.31
2022-10-23T21:00:47.227Z,100745.06
2022-10-23T21:03:26.991Z,100762.56
2022-10-23T21:06:12.031Z,100762.56
2022-10-23T21:08:58.012Z,100751.31
2022-10-23T21:11:46.944Z,100752.69
2022-10-23T21:14:21.688Z,100758.13
2022-10-23T21:17:18.498Z,100752.81
2022-10-23T21:19:57.249Z,100750.13
2022-10-23T21:23:00.493Z,100760.72
2022-10-23T21:29:13.743Z,100765.28
2022-10-23T21:32:18.339Z,100755.03
2022-10-23T21:35:25.350Z,100765.44
2022-10-23T21:38:34.291Z,100765.44
2022-10-23T21:41:17.370Z,100771.53
2022-10-23T21:44:14.649Z,100781.06
2022-10-23T21:50:17.813Z,100782.66
2022-10-23T21:53:44.546Z,100796.44
2022-10-23T21:56:34.697Z,100785.50
2022-10-23T21:59:29.120Z,100793.41
2022-10-23T22:02:23.966Z,100778.16
2022-10-23T22:04:58.815Z,100796.66
2022-10-23T22:07:40.229Z,100805.03
2022-10-23T22:10:31.424Z,100808.53
2022-10-23T22:13:12.832Z,100813.97
2022-10-23T22:18:57.790Z,100805.69
2022-10-23T22:21:42.651Z,100827.38
2022-10-23T22:24:20.442Z,100826.13
2022-10-23T22:27:19.340Z,100792.88
2022-10-23T22:30:14.811Z,100725.47
2022-10-23T22:32:52.442Z,100851.31
2022-10-23T22:35:30.238Z,100847.88
2022-10-23T22:38:14.762Z,100859.13
2022-10-23T22:41:03.789Z,100865.31
2022-10-23T22:43:37.192Z,100873.13
2022-10-23T22:46:36.832Z,100875.75
2022-10-23T22:49:27.431Z,100875.09
2022-10-23T22:52:25.339Z,100875.34
2022-10-23T22:55:03.232Z,100886.56
2022-10-23T22:57:57.125Z,100884.09
2022-10-23T23:00:47.113Z,100896.94
2022-10-23T23:03:32.241Z,100900.59
2022-10-23T23:06:38.136Z,100882.69
2022-10-23T23:09:20.556Z,100900.75
2022-10-23T23:12:14.089Z,100895.34
2022-10-23T23:14:59.128Z,100903.72
2022-10-23T23:20:52.011Z,100907.00
2022-10-23T23:23:34.758Z,100910.28
2022-10-23T23:26:25.017Z,100908.31
2022-10-23T23:29:18.310Z,100916.97
2022-10-23T23:32:06.772Z,100911.91
2022-10-23T23:35:12.776Z,100918.16
2022-10-23T23:37:58.917Z,100917.72
2022-10-23T23:41:05.853Z,100919.81
2022-10-23T23:43:43.951Z,100890.25
2022-10-23T23:46:31.657Z,100920.84
2022-10-23T23:49:10.206Z,100924.84
2022-10-23T23:52:03.211Z,100929.78
2022-10-23T23:54:56.762Z,100881.34
2022-10-23T23:57:37.077Z,100927.84
